createdAt,value
2022-07-29T00:02:26.617Z,16.32
2022-07-29T00:04:53.543Z,16.35
2022-07-29T00:07:20.295Z,16.31
2022-07-29T00:09:50.991Z,16.25
2022-07-29T00:12:21.503Z,16.20
2022-07-29T00:14:53.294Z,16.19
2022-07-29T00:17:20.000Z,16.09
2022-07-29T00:19:46.670Z,16.19
2022-07-29T00:22:13.379Z,16.16
2022-07-29T00:24:40.047Z,16.25
2022-07-29T00:27:07.222Z,16.24
2022-07-29T00:29:34.917Z,16.13
2022-07-29T00:32:02.763Z,16.07
2022-07-29T00:34:48.060Z,16.03
2022-07-29T00:37:14.696Z,15.99
2022-07-29T00:39:41.398Z,15.94
2022-07-29T00:42:08.880Z,15.91
2022-07-29T00:44:39.647Z,15.85
2022-07-29T00:47:07.204Z,15.81
2022-07-29T00:49:35.015Z,15.82
2022-07-29T00:52:06.028Z,15.83
2022-07-29T00:54:33.980Z,15.83
2022-07-29T00:57:00.978Z,15.83
2022-07-29T00:59:34.630Z,15.72
2022-07-29T01:02:03.875Z,15.71
2022-07-29T01:04:31.973Z,15.76
2022-07-29T01:06:59.612Z,15.86
2022-07-29T01:09:34.987Z,15.74
2022-07-29T01:12:19.072Z,15.66
2022-07-29T01:14:46.911Z,15.61
2022-07-29T01:17:36.380Z,15.64
2022-07-29T01:20:12.421Z,15.62
2022-07-29T01:23:08.121Z,15.55
2022-07-29T01:25:59.366Z,15.49
2022-07-29T01:28:48.020Z,15.60
2022-07-29T01:31:25.402Z,15.68
2022-07-29T01:34:00.260Z,15.59
2022-07-29T01:36:33.421Z,15.57
2022-07-29T01:39:26.300Z,15.51
2022-07-29T01:42:28.089Z,15.44
2022-07-29T01:45:07.484Z,15.47
2022-07-29T01:47:42.912Z,15.32
2022-07-29T01:50:13.798Z,15.41
2022-07-29T01:52:57.405Z,15.52
2022-07-29T01:55:29.792Z,15.43
2022-07-29T01:58:01.116Z,15.38
2022-07-29T02:00:29.328Z,15.36
2022-07-29T02:02:59.001Z,15.37
2022-07-29T02:05:28.435Z,15.41
2022-07-29T02:07:57.771Z,15.36
2022-07-29T02:10:28.865Z,15.44
2022-07-29T02:12:58.204Z,15.34
2022-07-29T02:15:28.332Z,15.30
2022-07-29T02:18:03.104Z,15.26
2022-07-29T02:20:31.592Z,15.22
2022-07-29T02:23:00.796Z,15.22
2022-07-29T02:25:37.052Z,15.19
2022-07-29T02:28:07.636Z,15.24
2022-07-29T02:30:37.269Z,15.19
2022-07-29T02:33:05.354Z,15.16
2022-07-29T02:35:34.866Z,15.17
2022-07-29T02:38:22.310Z,15.17
2022-07-29T02:40:51.743Z,15.24
2022-07-29T02:43:19.653Z,15.28
2022-07-29T02:45:52.681Z,15.34
2022-07-29T02:48:27.364Z,15.34
2022-07-29T02:51:02.491Z,15.31
2022-07-29T02:53:34.327Z,15.33
2022-07-29T02:56:05.448Z,15.33
2022-07-29T02:58:35.442Z,15.34
2022-07-29T03:01:12.308Z,15.38
2022-07-29T03:03:42.618Z,15.34
2022-07-29T03:06:30.954Z,15.37
2022-07-29T03:09:00.079Z,15.49
2022-07-29T03:11:42.425Z,15.40
2022-07-29T03:14:15.405Z,15.39
2022-07-29T03:16:43.071Z,15.53
2022-07-29T03:19:10.043Z,15.47
2022-07-29T03:21:36.823Z,15.55
2022-07-29T03:24:09.816Z,15.43
2022-07-29T03:26:37.154Z,15.41
2022-07-29T03:29:03.846Z,15.36
2022-07-29T03:31:30.590Z,15.36
2022-07-29T03:33:58.498Z,15.39
2022-07-29T03:36:25.860Z,15.40
2022-07-29T03:38:53.377Z,15.32
2022-07-29T03:41:23.895Z,15.30
2022-07-29T03:43:51.249Z,15.46
2022-07-29T03:46:20.449Z,15.47
2022-07-29T03:48:51.733Z,15.40
2022-07-29T03:51:18.862Z,15.42
2022-07-29T03:54:00.500Z,15.48
2022-07-29T03:56:28.993Z,15.52
2022-07-29T03:58:56.587Z,15.49
2022-07-29T04:01:24.966Z,15.51
2022-07-29T04:03:52.467Z,15.48
2022-07-29T04:06:19.290Z,15.53
2022-07-29T04:08:46.225Z,15.61
2022-07-29T04:11:13.747Z,15.65
2022-07-29T04:13:40.404Z,15.65
2022-07-29T04:16:07.189Z,15.67
2022-07-29T04:18:33.964Z,15.67
2022-07-29T04:21:01.848Z,15.65
2022-07-29T04:23:34.410Z,15.77
2022-07-29T04:26:02.163Z,15.81
2022-07-29T04:28:29.145Z,15.97
2022-07-29T04:30:56.504Z,16.03
2022-07-29T04:33:23.136Z,15.88
2022-07-29T04:35:52.442Z,15.88
2022-07-29T04:38:23.149Z,15.93
2022-07-29T04:40:49.993Z,16.02
2022-07-29T04:43:17.185Z,15.91
2022-07-29T04:45:49.561Z,15.95
2022-07-29T04:48:16.199Z,15.96
2022-07-29T04:50:43.125Z,16.06
2022-07-29T04:53:09.869Z,16.08
2022-07-29T04:55:38.863Z,16.15
2022-07-29T04:58:05.910Z,16.23
2022-07-29T05:00:33.535Z,16.25
2022-07-29T05:03:00.901Z,16.45
2022-07-29T05:05:27.749Z,16.52
2022-07-29T05:07:54.489Z,16.46
2022-07-29T05:10:21.111Z,16.46
2022-07-29T05:12:48.256Z,16.61
2022-07-29T05:15:15.125Z,16.51
2022-07-29T05:17:41.853Z,16.71
2022-07-29T05:20:09.025Z,16.59
2022-07-29T05:22:35.810Z,16.50
2022-07-29T05:25:08.492Z,16.47
2022-07-29T05:27:36.815Z,16.44
2022-07-29T05:30:03.939Z,16.47
2022-07-29T05:32:30.658Z,16.46
2022-07-29T05:34:57.390Z,16.55
2022-07-29T05:37:24.132Z,16.58
2022-07-29T05:39:50.936Z,16.57
2022-07-29T05:42:23.722Z,16.68
2022-07-29T05:44:50.393Z,16.74
2022-07-29T05:47:17.129Z,17.04
2022-07-29T05:49:43.895Z,17.22
2022-07-29T05:52:10.676Z,17.36
2022-07-29T05:54:37.426Z,17.52
2022-07-29T05:57:04.404Z,17.65
2022-07-29T05:59:31.111Z,17.68
2022-07-29T06:01:58.660Z,17.77
2022-07-29T06:04:25.548Z,18.05
2022-07-29T06:06:52.285Z,18.13
2022-07-29T06:09:19.027Z,18.05
2022-07-29T06:11:45.987Z,18.28
2022-07-29T06:14:12.687Z,18.15
2022-07-29T06:16:39.527Z,18.13
2022-07-29T06:19:06.356Z,18.23
2022-07-29T06:21:33.151Z,18.33
2022-07-29T06:23:59.919Z,18.28
2022-07-29T06:26:31.451Z,18.30
2022-07-29T06:28:59.736Z,18.24
2022-07-29T06:31:26.668Z,18.35
2022-07-29T06:33:54.739Z,18.42
2022-07-29T06:36:22.974Z,18.46
2022-07-29T06:38:52.118Z,18.48
2022-07-29T06:41:19.255Z,18.62
2022-07-29T06:43:52.524Z,18.63
2022-07-29T06:46:22.578Z,18.65
2022-07-29T06:48:49.689Z,18.71
2022-07-29T06:51:21.680Z,18.93
2022-07-29T06:54:00.373Z,18.98
2022-07-29T06:56:29.484Z,19.53
2022-07-29T06:58:56.321Z,19.63
2022-07-29T07:01:23.046Z,19.64
2022-07-29T07:03:49.997Z,19.76
2022-07-29T07:06:17.377Z,19.94
2022-07-29T07:08:44.031Z,19.81
2022-07-29T07:11:10.751Z,19.97
2022-07-29T07:13:37.477Z,20.42
2022-07-29T07:16:05.432Z,20.56
2022-07-29T07:18:32.321Z,20.85
2022-07-29T07:21:00.154Z,21.04
2022-07-29T07:23:26.861Z,21.32
2022-07-29T07:25:53.502Z,21.54
2022-07-29T07:28:24.539Z,21.66
2022-07-29T07:30:51.900Z,21.91
2022-07-29T07:33:18.644Z,22.17
2022-07-29T07:35:45.393Z,22.52
2022-07-29T07:38:12.152Z,22.50
2022-07-29T07:40:38.909Z,22.39
2022-07-29T07:43:05.570Z,22.66
2022-07-29T07:45:34.007Z,22.52
2022-07-29T07:48:01.224Z,23.04
2022-07-29T07:50:28.198Z,23.61
2022-07-29T07:52:58.848Z,23.49
2022-07-29T07:55:26.678Z,23.80
2022-07-29T07:57:53.570Z,24.03
2022-07-29T08:00:22.939Z,23.90
2022-07-29T08:02:51.054Z,23.63
2022-07-29T08:05:18.433Z,23.68
2022-07-29T08:07:47.011Z,23.43
2022-07-29T08:10:16.024Z,23.76
2022-07-29T08:12:44.452Z,23.92
2022-07-29T08:15:11.166Z,24.51
2022-07-29T08:17:37.920Z,24.85
2022-07-29T08:20:05.173Z,24.92
2022-07-29T08:22:32.235Z,24.59
2022-07-29T08:24:58.893Z,24.03
2022-07-29T08:27:42.886Z,24.04
2022-07-29T08:30:11.302Z,24.06
2022-07-29T08:32:53.340Z,24.34
2022-07-29T08:35:22.685Z,24.51
2022-07-29T08:37:49.438Z,24.49
2022-07-29T08:40:16.673Z,24.60
2022-07-29T08:42:43.355Z,24.18
2022-07-29T08:45:10.625Z,24.25
2022-07-29T08:47:40.590Z,23.44
2022-07-29T08:50:09.834Z,23.77
2022-07-29T08:52:42.251Z,23.57
2022-07-29T08:55:11.290Z,23.61
2022-07-29T08:57:43.427Z,23.98
2022-07-29T09:00:23.463Z,24.70
2022-07-29T09:02:57.272Z,25.22
2022-07-29T09:05:25.240Z,25.48
2022-07-29T09:07:52.548Z,25.73
2022-07-29T09:10:19.458Z,26.28
2022-07-29T09:12:46.451Z,25.94
2022-07-29T09:15:13.221Z,25.56
2022-07-29T09:17:48.448Z,25.67
2022-07-29T09:20:20.538Z,25.16
2022-07-29T09:22:50.641Z,25.31
2022-07-29T09:25:37.553Z,25.16
2022-07-29T09:28:24.714Z,24.97
2022-07-29T09:30:57.315Z,25.07
2022-07-29T09:33:24.828Z,25.19
2022-07-29T09:36:08.856Z,25.88
2022-07-29T09:38:37.687Z,25.87
2022-07-29T09:41:06.722Z,25.65
2022-07-29T09:43:34.292Z,25.46
2022-07-29T09:46:14.607Z,25.25
2022-07-29T09:48:41.734Z,25.53
2022-07-29T09:51:21.411Z,25.94
2022-07-29T09:53:51.364Z,25.97
2022-07-29T09:56:20.477Z,26.43
2022-07-29T09:58:47.124Z,26.45
2022-07-29T10:01:13.829Z,26.61
2022-07-29T10:03:53.764Z,26.67
2022-07-29T10:06:20.515Z,26.48
2022-07-29T10:08:47.933Z,26.99
2022-07-29T10:11:18.671Z,26.98
2022-07-29T10:13:48.416Z,26.84
2022-07-29T10:16:17.046Z,26.93
2022-07-29T10:18:44.844Z,27.23
2022-07-29T10:21:34.546Z,26.93
2022-07-29T10:24:01.376Z,26.76
2022-07-29T10:26:29.249Z,27.39
2022-07-29T10:28:56.868Z,27.96
2022-07-29T10:31:58.622Z,27.60
2022-07-29T10:34:44.054Z,26.90
2022-07-29T10:37:47.543Z,26.60
2022-07-29T10:40:47.397Z,26.69
2022-07-29T10:43:37.277Z,26.63
2022-07-29T10:46:07.337Z,26.78
2022-07-29T10:48:34.896Z,26.79
2022-07-29T10:51:07.026Z,26.52
2022-07-29T10:53:54.181Z,26.23
2022-07-29T10:56:41.584Z,26.10
2022-07-29T10:59:24.125Z,26.83
2022-07-29T11:01:54.370Z,27.37
2022-07-29T11:04:44.561Z,28.37
2022-07-29T11:07:12.260Z,28.29
2022-07-29T11:09:39.700Z,28.43
2022-07-29T11:12:37.375Z,28.72
2022-07-29T11:15:08.036Z,28.85
2022-07-29T11:17:53.461Z,28.83
2022-07-29T11:20:46.382Z,28.84
2022-07-29T11:23:33.376Z,29.18
2022-07-29T11:26:26.773Z,29.43
2022-07-29T11:28:57.248Z,28.56
2022-07-29T11:31:36.141Z,29.12
2022-07-29T11:34:28.238Z,29.35
2022-07-29T11:37:12.360Z,29.15
2022-07-29T11:39:45.317Z,29.47
2022-07-29T11:42:32.138Z,29.49
2022-07-29T11:45:42.946Z,29.78
2022-07-29T11:48:27.580Z,30.06
2022-07-29T11:50:48.147Z,30.20
2022-07-29T11:53:16.227Z,30.08
2022-07-29T11:55:50.996Z,29.75
2022-07-29T11:58:25.066Z,29.20
2022-07-29T12:00:53.063Z,29.33
2022-07-29T12:03:33.366Z,29.57
2022-07-29T12:06:13.129Z,29.65
2022-07-29T12:08:44.524Z,29.81
2022-07-29T12:11:22.696Z,30.00
2022-07-29T12:13:51.848Z,29.46
2022-07-29T12:16:25.799Z,29.72
2022-07-29T12:19:04.078Z,29.86
2022-07-29T12:21:52.317Z,29.99
2022-07-29T12:24:26.984Z,29.98
2022-07-29T12:26:59.153Z,30.41
2022-07-29T12:29:35.237Z,29.78
2022-07-29T12:32:04.127Z,30.03
2022-07-29T12:34:31.866Z,29.95
2022-07-29T12:36:58.688Z,30.16
2022-07-29T12:39:28.894Z,30.39
2022-07-29T12:42:04.691Z,30.01
2022-07-29T12:44:49.141Z,29.65
2022-07-29T12:47:17.405Z,29.61
2022-07-29T12:49:44.151Z,29.25
2022-07-29T12:52:29.143Z,29.55
2022-07-29T12:54:55.955Z,29.80
2022-07-29T12:57:23.274Z,30.07
2022-07-29T13:00:12.581Z,29.94
2022-07-29T13:02:39.917Z,30.06
2022-07-29T13:05:09.210Z,30.21
2022-07-29T13:07:54.570Z,30.31
2022-07-29T13:10:24.940Z,30.44
2022-07-29T13:13:15.355Z,30.15
2022-07-29T13:15:44.027Z,29.96
2022-07-29T13:18:38.830Z,30.01
2022-07-29T13:21:18.782Z,29.70
2022-07-29T13:23:45.997Z,29.04
2022-07-29T13:26:13.113Z,28.66
2022-07-29T13:28:40.496Z,28.68
2022-07-29T13:31:11.203Z,29.00
2022-07-29T13:33:37.960Z,29.22
2022-07-29T13:36:04.686Z,28.35
2022-07-29T13:38:31.475Z,28.13
2022-07-29T13:40:58.503Z,28.87
2022-07-29T13:43:25.290Z,29.00
2022-07-29T13:45:52.048Z,29.08
2022-07-29T13:48:18.882Z,28.93
2022-07-29T13:50:46.642Z,29.09
2022-07-29T13:53:17.858Z,29.27
2022-07-29T13:55:46.342Z,29.22
2022-07-29T13:58:15.057Z,29.08
2022-07-29T14:00:41.799Z,29.13
2022-07-29T14:03:08.460Z,29.23
2022-07-29T14:05:35.084Z,29.23
2022-07-29T14:08:01.737Z,29.69
2022-07-29T14:10:28.420Z,29.67
2022-07-29T14:12:55.219Z,29.54
2022-07-29T14:15:21.926Z,29.35
2022-07-29T14:17:48.543Z,29.26
2022-07-29T14:20:16.618Z,29.31
2022-07-29T14:22:45.286Z,29.52
2022-07-29T14:25:14.678Z,29.48
2022-07-29T14:27:42.818Z,29.08
2022-07-29T14:30:11.824Z,29.69
2022-07-29T14:32:38.492Z,29.75
2022-07-29T14:35:06.727Z,30.05
2022-07-29T14:37:40.493Z,30.03
2022-07-29T14:40:09.411Z,29.45
2022-07-29T14:42:37.186Z,29.50
2022-07-29T14:45:05.041Z,29.67
2022-07-29T14:47:32.559Z,29.32
2022-07-29T14:49:59.276Z,28.89
2022-07-29T14:52:26.087Z,29.13
2022-07-29T14:54:52.736Z,29.51
2022-07-29T14:57:19.369Z,29.60
2022-07-29T14:59:46.029Z,29.71
2022-07-29T15:02:12.692Z,30.04
2022-07-29T15:04:40.104Z,30.03
2022-07-29T15:07:06.823Z,29.66
2022-07-29T15:09:33.672Z,29.97
2022-07-29T15:12:07.853Z,30.03
2022-07-29T15:14:35.085Z,29.98
2022-07-29T15:17:01.888Z,30.09
2022-07-29T15:19:31.584Z,29.95
2022-07-29T15:21:59.754Z,29.66
2022-07-29T15:24:28.183Z,29.99
2022-07-29T15:26:54.894Z,29.98
2022-07-29T15:29:21.564Z,30.06
2022-07-29T15:31:48.490Z,30.07
2022-07-29T15:34:15.369Z,30.07
2022-07-29T15:36:52.102Z,30.03
2022-07-29T15:39:22.314Z,30.45
2022-07-29T15:41:49.510Z,30.25
2022-07-29T15:44:16.230Z,30.43
2022-07-29T15:47:01.775Z,30.14
2022-07-29T15:49:48.470Z,30.04
2022-07-29T15:52:25.321Z,30.13
2022-07-29T15:54:57.003Z,30.14
2022-07-29T15:57:24.743Z,30.15
2022-07-29T15:59:52.115Z,30.32
2022-07-29T16:02:19.279Z,29.88
2022-07-29T16:04:45.941Z,29.98
2022-07-29T16:07:12.703Z,29.73
2022-07-29T16:09:41.409Z,30.33
2022-07-29T16:12:13.673Z,30.85
2022-07-29T16:14:45.401Z,31.09
2022-07-29T16:17:14.800Z,31.45
2022-07-29T16:19:45.595Z,31.55
2022-07-29T16:22:12.891Z,31.45
2022-07-29T16:24:39.882Z,30.21
2022-07-29T16:27:06.848Z,29.61
2022-07-29T16:29:33.516Z,29.39
2022-07-29T16:32:00.954Z,29.48
2022-07-29T16:34:27.657Z,29.10
2022-07-29T16:36:54.490Z,29.04
2022-07-29T16:39:21.202Z,28.46
2022-07-29T16:41:47.972Z,28.57
2022-07-29T16:44:15.944Z,28.95
2022-07-29T16:46:44.845Z,28.56
2022-07-29T16:49:11.765Z,28.40
2022-07-29T16:51:41.725Z,27.95
2022-07-29T16:54:11.071Z,27.81
2022-07-29T16:56:37.771Z,27.48
2022-07-29T16:59:04.463Z,27.46
2022-07-29T17:01:31.139Z,27.55
2022-07-29T17:04:06.388Z,27.81
2022-07-29T17:06:38.180Z,28.03
2022-07-29T17:09:07.266Z,28.13
2022-07-29T17:11:52.727Z,28.33
2022-07-29T17:14:25.189Z,27.98
2022-07-29T17:17:00.744Z,28.26
2022-07-29T17:19:30.369Z,27.75
2022-07-29T17:22:04.673Z,27.67
2022-07-29T17:24:31.624Z,27.74
2022-07-29T17:26:58.574Z,27.64
2022-07-29T17:29:25.574Z,28.33
2022-07-29T17:31:52.289Z,28.96
2022-07-29T17:34:19.105Z,29.05
2022-07-29T17:36:46.183Z,28.92
2022-07-29T17:39:12.924Z,28.99
2022-07-29T17:41:44.892Z,29.41
2022-07-29T17:44:11.560Z,29.76
2022-07-29T17:46:38.709Z,29.56
2022-07-29T17:49:05.710Z,29.51
2022-07-29T17:51:33.184Z,29.07
2022-07-29T17:53:59.901Z,29.21
2022-07-29T17:56:26.583Z,29.55
2022-07-29T17:58:53.441Z,29.55
2022-07-29T18:01:20.938Z,29.91
2022-07-29T18:03:47.789Z,29.66
2022-07-29T18:06:14.612Z,29.53
2022-07-29T18:08:41.335Z,29.73
2022-07-29T18:11:08.014Z,29.43
2022-07-29T18:13:34.703Z,29.13
2022-07-29T18:16:01.426Z,28.42
2022-07-29T18:18:28.178Z,27.95
2022-07-29T18:20:55.215Z,27.74
2022-07-29T18:23:21.897Z,27.07
2022-07-29T18:25:48.638Z,26.68
2022-07-29T18:28:15.432Z,26.37
2022-07-29T18:30:42.211Z,25.93
2022-07-29T18:33:21.801Z,25.67
2022-07-29T18:35:50.559Z,25.67
2022-07-29T18:38:17.451Z,25.61
2022-07-29T18:40:45.675Z,25.34
2022-07-29T18:43:12.858Z,25.15
2022-07-29T18:45:39.710Z,25.07
2022-07-29T18:48:13.264Z,24.88
2022-07-29T18:50:41.046Z,24.83
2022-07-29T18:53:08.066Z,24.86
2022-07-29T18:55:34.828Z,24.58
2022-07-29T18:58:01.508Z,24.47
2022-07-29T19:00:28.272Z,24.33
2022-07-29T19:02:55.654Z,24.44
2022-07-29T19:05:23.299Z,24.30
2022-07-29T19:07:50.099Z,24.28
2022-07-29T19:10:17.009Z,24.20
2022-07-29T19:12:43.720Z,24.07
2022-07-29T19:15:10.879Z,23.95
2022-07-29T19:17:38.726Z,23.94
2022-07-29T19:20:07.207Z,24.05
2022-07-29T19:22:34.893Z,23.76
2022-07-29T19:25:01.642Z,23.68
2022-07-29T19:27:28.403Z,23.54
2022-07-29T19:29:58.939Z,23.50
2022-07-29T19:32:25.983Z,23.50
2022-07-29T19:35:11.671Z,23.57
2022-07-29T19:37:39.670Z,23.41
2022-07-29T19:40:07.410Z,23.37
2022-07-29T19:42:35.182Z,23.28
2022-07-29T19:45:01.802Z,23.24
2022-07-29T19:47:28.470Z,23.23
2022-07-29T19:49:55.130Z,23.22
2022-07-29T19:52:21.836Z,23.18
2022-07-29T19:54:48.545Z,23.21
2022-07-29T19:57:16.048Z,23.01
2022-07-29T19:59:42.923Z,22.92
2022-07-29T20:02:12.323Z,22.92
2022-07-29T20:04:39.645Z,22.77
2022-07-29T20:07:07.288Z,22.86
2022-07-29T20:09:34.153Z,22.91
2022-07-29T20:12:00.977Z,22.69
2022-07-29T20:14:27.724Z,22.79
2022-07-29T20:16:54.513Z,22.62
2022-07-29T20:19:21.378Z,22.64
2022-07-29T20:21:48.129Z,22.51
2022-07-29T20:24:14.822Z,22.62
2022-07-29T20:26:41.845Z,22.51
2022-07-29T20:29:09.190Z,22.55
2022-07-29T20:31:36.210Z,22.36
2022-07-29T20:34:02.955Z,22.39
2022-07-29T20:36:29.731Z,22.46
2022-07-29T20:38:56.868Z,22.24
2022-07-29T20:41:23.645Z,22.27
2022-07-29T20:43:50.417Z,22.24
2022-07-29T20:46:18.749Z,22.33
2022-07-29T20:48:46.976Z,22.17
2022-07-29T20:51:14.535Z,22.09
2022-07-29T20:53:41.746Z,22.04
2022-07-29T20:56:08.760Z,22.11
2022-07-29T20:58:36.582Z,22.12
2022-07-29T21:01:03.827Z,22.04
2022-07-29T21:03:30.726Z,22.04
2022-07-29T21:05:57.458Z,22.14
2022-07-29T21:08:24.633Z,21.96
2022-07-29T21:10:51.370Z,21.93
2022-07-29T21:13:18.715Z,21.98
2022-07-29T21:15:49.288Z,21.87
2022-07-29T21:18:37.112Z,21.94
2022-07-29T21:21:05.019Z,21.79
2022-07-29T21:23:31.849Z,21.67
2022-07-29T21:25:58.982Z,21.70
2022-07-29T21:28:51.984Z,21.60
2022-07-29T21:31:18.694Z,21.60
2022-07-29T21:33:46.688Z,21.73
2022-07-29T21:36:46.481Z,21.68
2022-07-29T21:39:07.117Z,21.71
2022-07-29T21:41:34.716Z,21.62
2022-07-29T21:44:01.530Z,21.55
2022-07-29T21:46:28.427Z,21.51
2022-07-29T21:48:55.314Z,21.54
2022-07-29T21:51:21.975Z,21.34
2022-07-29T21:53:48.653Z,21.40
2022-07-29T21:56:15.306Z,21.33
2022-07-29T21:58:44.615Z,21.43
2022-07-29T22:01:11.386Z,21.20
2022-07-29T22:03:38.186Z,21.23
2022-07-29T22:06:04.879Z,21.27
2022-07-29T22:08:31.620Z,21.15
2022-07-29T22:10:58.296Z,21.17
2022-07-29T22:13:24.999Z,21.12
2022-07-29T22:15:51.673Z,20.99
2022-07-29T22:18:20.533Z,21.09
2022-07-29T22:20:49.176Z,21.16
2022-07-29T22:23:15.846Z,20.98
2022-07-29T22:25:42.480Z,20.96
2022-07-29T22:28:09.148Z,20.89
2022-07-29T22:30:35.941Z,20.84
2022-07-29T22:33:02.690Z,20.97
2022-07-29T22:35:29.360Z,20.92
2022-07-29T22:37:56.087Z,21.00
2022-07-29T22:40:22.796Z,20.84
2022-07-29T22:42:57.487Z,21.01
2022-07-29T22:45:24.238Z,20.88
2022-07-29T22:47:55.964Z,20.85
2022-07-29T22:50:25.796Z,20.81
2022-07-29T22:52:52.408Z,20.69
2022-07-29T22:55:19.069Z,20.71
2022-07-29T22:57:45.749Z,20.70
2022-07-29T23:00:13.597Z,20.73
2022-07-29T23:02:41.489Z,20.62
2022-07-29T23:05:09.091Z,20.66
2022-07-29T23:07:36.176Z,20.56
2022-07-29T23:10:03.435Z,20.56
2022-07-29T23:12:30.080Z,20.46
2022-07-29T23:14:56.696Z,20.47
2022-07-29T23:17:23.429Z,20.41
2022-07-29T23:19:50.087Z,20.28
2022-07-29T23:22:17.016Z,20.24
2022-07-29T23:24:45.448Z,20.26
2022-07-29T23:27:12.095Z,20.17
2022-07-29T23:29:38.761Z,20.42
2022-07-29T23:32:06.576Z,20.18
2022-07-29T23:34:33.197Z,20.28
2022-07-29T23:37:00.042Z,20.25
2022-07-29T23:39:26.960Z,20.08
2022-07-29T23:41:53.711Z,20.00
2022-07-29T23:44:20.441Z,20.09
2022-07-29T23:46:47.184Z,19.94
2022-07-29T23:49:14.609Z,20.00
2022-07-29T23:51:41.323Z,19.93
2022-07-29T23:54:08.106Z,19.95
2022-07-29T23:56:34.736Z,19.97
2022-07-29T23:59:01.363Z,19.87
